createdAt,value
2019-03-18T00:00:31.857Z,21.20
2019-03-18T00:03:36.259Z,22.47
2019-03-18T00:06:40.667Z,21.37
2019-03-18T00:09:45.057Z,19.27
2019-03-18T00:12:52.022Z,14.60
2019-03-18T00:15:55.654Z,12.93
2019-03-18T00:19:00.020Z,10.47
2019-03-18T00:22:04.411Z,10.53
2019-03-18T00:25:08.923Z,9.00
2019-03-18T00:28:13.267Z,7.73
2019-03-18T00:31:17.605Z,6.87
2019-03-18T00:34:21.960Z,6.03
2019-03-18T00:37:26.343Z,6.83
2019-03-18T00:40:30.681Z,6.17
2019-03-18T00:43:35.078Z,8.93
2019-03-18T00:46:39.461Z,5.90
2019-03-18T00:49:43.839Z,6.00
2019-03-18T00:52:48.705Z,9.17
2019-03-18T00:55:53.024Z,15.40
2019-03-18T00:58:57.384Z,12.73
2019-03-18T01:02:01.825Z,10.53
2019-03-18T01:05:06.899Z,4.73
2019-03-18T01:08:11.319Z,6.67
2019-03-18T01:11:15.771Z,4.93
2019-03-18T01:14:20.497Z,5.40
2019-03-18T01:17:24.866Z,4.73
2019-03-18T01:20:29.257Z,7.13
2019-03-18T01:23:34.531Z,3.97
2019-03-18T01:26:38.917Z,6.53
2019-03-18T01:29:43.260Z,5.57
2019-03-18T01:32:47.895Z,6.63
2019-03-18T01:35:52.251Z,7.97
2019-03-18T01:38:56.652Z,8.03
2019-03-18T01:42:01.054Z,6.50
2019-03-18T01:45:05.939Z,8.30
2019-03-18T01:48:10.294Z,5.73
2019-03-18T01:51:14.672Z,7.10
2019-03-18T01:54:19.016Z,6.90
2019-03-18T01:57:23.436Z,4.33
2019-03-18T02:00:27.802Z,7.53
2019-03-18T02:03:32.273Z,6.77
2019-03-18T02:06:36.640Z,8.03
2019-03-18T02:09:41.015Z,6.10
2019-03-18T02:12:45.610Z,5.33
2019-03-18T02:15:53.614Z,8.90
2019-03-18T02:18:55.983Z,8.40
2019-03-18T02:22:00.360Z,6.30
2019-03-18T02:25:05.423Z,5.10
2019-03-18T02:28:09.812Z,5.27
2019-03-18T02:31:14.191Z,5.97
2019-03-18T02:34:18.562Z,4.67
2019-03-18T02:37:22.921Z,3.37
2019-03-18T02:40:27.294Z,5.03
2019-03-18T02:43:31.707Z,5.50
2019-03-18T02:46:36.100Z,7.47
2019-03-18T02:49:40.375Z,4.43
2019-03-18T02:52:44.744Z,4.37
2019-03-18T02:55:49.027Z,3.90
2019-03-18T02:58:53.397Z,3.73
2019-03-18T03:01:57.772Z,6.77
2019-03-18T03:05:02.165Z,5.33
2019-03-18T03:08:06.516Z,4.80
2019-03-18T03:11:11.203Z,6.83
2019-03-18T03:14:15.607Z,4.20
2019-03-18T03:17:21.900Z,4.57
2019-03-18T03:20:25.968Z,6.23
2019-03-18T03:23:30.374Z,12.37
2019-03-18T03:26:34.732Z,6.53
2019-03-18T03:29:39.130Z,8.47
2019-03-18T03:32:43.800Z,7.80
2019-03-18T03:35:48.679Z,8.20
2019-03-18T03:38:53.029Z,9.00
2019-03-18T03:41:57.417Z,8.10
2019-03-18T03:45:01.800Z,7.10
2019-03-18T03:48:06.114Z,7.00
2019-03-18T03:51:10.477Z,6.00
2019-03-18T03:54:14.878Z,10.10
2019-03-18T03:57:19.327Z,6.97
2019-03-18T04:00:23.789Z,4.67
2019-03-18T04:03:38.133Z,5.97
2019-03-18T04:06:34.281Z,7.97
2019-03-18T04:09:38.644Z,7.03
2019-03-18T04:12:43.060Z,6.27
2019-03-18T04:15:47.443Z,5.03
2019-03-18T04:18:51.848Z,6.10
2019-03-18T04:21:56.213Z,9.97
2019-03-18T04:25:00.635Z,8.00
2019-03-18T04:28:04.943Z,8.60
2019-03-18T04:31:09.325Z,10.07
2019-03-18T04:34:13.687Z,9.90
2019-03-18T04:37:18.077Z,7.87
2019-03-18T04:40:22.436Z,7.87
2019-03-18T04:43:26.812Z,7.23
2019-03-18T04:46:31.222Z,7.20
2019-03-18T04:49:35.618Z,6.80
2019-03-18T04:52:39.987Z,8.70
2019-03-18T04:55:44.394Z,9.70
2019-03-18T04:58:48.745Z,9.73
2019-03-18T05:01:55.268Z,9.97
2019-03-18T05:04:59.624Z,8.20
2019-03-18T05:08:04.256Z,8.73
2019-03-18T05:11:08.615Z,6.80
2019-03-18T05:14:13.076Z,6.90
2019-03-18T05:17:26.064Z,7.17
2019-03-18T05:20:23.549Z,4.77
2019-03-18T05:23:27.856Z,7.73
2019-03-18T05:26:32.176Z,8.13
2019-03-18T05:29:36.521Z,8.13
2019-03-18T05:32:40.998Z,8.37
2019-03-18T05:35:45.292Z,8.87
2019-03-18T05:38:49.961Z,7.73
2019-03-18T05:41:54.309Z,8.50
2019-03-18T05:44:58.708Z,7.80
2019-03-18T05:48:03.016Z,7.53
2019-03-18T05:51:07.455Z,9.37
2019-03-18T05:54:11.800Z,8.63
2019-03-18T05:57:16.125Z,7.17
2019-03-18T06:00:20.471Z,9.33
2019-03-18T06:03:24.871Z,7.47
2019-03-18T06:06:29.264Z,7.70
2019-03-18T06:09:33.636Z,8.63
2019-03-18T06:12:37.980Z,7.70
2019-03-18T06:15:42.388Z,9.37
2019-03-18T06:18:46.760Z,8.07
2019-03-18T06:21:51.172Z,9.43
2019-03-18T06:24:55.551Z,8.43
2019-03-18T06:28:00.032Z,7.67
2019-03-18T06:31:04.324Z,8.63
2019-03-18T06:34:08.734Z,10.47
2019-03-18T06:37:13.111Z,10.33
2019-03-18T06:40:18.114Z,17.77
2019-03-18T06:43:22.556Z,15.27
2019-03-18T06:46:27.009Z,16.37
2019-03-18T06:49:32.587Z,18.30
2019-03-18T06:52:36.943Z,18.87
2019-03-18T06:55:41.346Z,19.60
2019-03-18T06:58:45.762Z,17.77
2019-03-18T07:01:50.124Z,16.33
2019-03-18T07:04:54.538Z,16.70
2019-03-18T07:07:58.894Z,15.63
2019-03-18T07:11:03.293Z,16.70
2019-03-18T07:14:07.675Z,14.37
2019-03-18T07:17:12.072Z,13.20
2019-03-18T07:20:16.461Z,15.53
2019-03-18T07:23:20.875Z,11.50
2019-03-18T07:26:25.176Z,12.67
2019-03-18T07:29:29.555Z,11.60
2019-03-18T07:32:33.917Z,14.57
2019-03-18T07:35:38.326Z,12.40
2019-03-18T07:38:42.682Z,12.90
2019-03-18T07:41:47.090Z,11.77
2019-03-18T07:44:52.387Z,11.63
2019-03-18T07:47:56.773Z,10.03
2019-03-18T07:51:01.166Z,10.57
2019-03-18T07:54:05.563Z,10.47
2019-03-18T07:57:09.850Z,11.43
2019-03-18T08:00:14.378Z,12.47
2019-03-18T08:03:18.688Z,9.47
2019-03-18T08:06:23.113Z,7.87
2019-03-18T08:09:28.853Z,7.47
2019-03-18T08:12:33.210Z,10.50
2019-03-18T08:15:38.074Z,8.07
2019-03-18T08:18:43.587Z,7.57
2019-03-18T08:21:48.373Z,8.13
2019-03-18T08:24:52.931Z,8.57
2019-03-18T08:27:58.910Z,10.13
2019-03-18T08:31:04.064Z,8.70
2019-03-18T08:34:08.534Z,9.10
2019-03-18T08:37:12.957Z,9.20
2019-03-18T08:40:17.972Z,7.93
2019-03-18T08:43:22.393Z,13.10
2019-03-18T08:46:26.823Z,13.00
2019-03-18T08:49:31.249Z,9.50
2019-03-18T08:52:35.695Z,11.77
2019-03-18T08:55:40.210Z,10.03
2019-03-18T08:58:44.735Z,10.63
2019-03-18T09:01:49.534Z,13.67
2019-03-18T09:04:54.062Z,10.60
2019-03-18T09:07:58.472Z,10.70
2019-03-18T09:11:03.266Z,10.70
2019-03-18T09:14:07.690Z,10.93
2019-03-18T09:17:12.084Z,9.07
2019-03-18T09:20:16.515Z,5.97
2019-03-18T09:23:20.917Z,6.37
2019-03-18T09:26:25.322Z,6.47
2019-03-18T09:29:29.753Z,4.53
2019-03-18T09:32:34.172Z,6.50
2019-03-18T09:35:38.542Z,5.90
2019-03-18T09:38:42.976Z,6.57
2019-03-18T09:41:47.361Z,6.37
2019-03-18T09:44:52.077Z,5.90
2019-03-18T09:47:56.512Z,5.50
2019-03-18T09:51:00.942Z,5.00
2019-03-18T09:54:06.548Z,7.77
2019-03-18T09:57:10.931Z,6.47
2019-03-18T10:00:16.572Z,5.13
2019-03-18T10:03:21.033Z,4.93
2019-03-18T10:06:25.405Z,5.97
2019-03-18T10:09:29.939Z,3.07
2019-03-18T10:12:36.183Z,7.03
2019-03-18T10:15:40.647Z,4.77
2019-03-18T10:18:45.123Z,6.47
2019-03-18T10:21:49.612Z,8.90
2019-03-18T10:24:53.935Z,8.57
2019-03-18T10:27:58.527Z,9.23
2019-03-18T10:31:02.906Z,7.83
2019-03-18T10:34:07.302Z,10.87
2019-03-18T10:37:11.860Z,8.80
2019-03-18T10:40:16.257Z,7.07
2019-03-18T10:43:20.602Z,10.20
2019-03-18T10:46:26.333Z,6.73
2019-03-18T10:49:32.009Z,7.73
2019-03-18T10:52:36.536Z,6.33
2019-03-18T10:55:40.966Z,8.43
2019-03-18T10:58:45.361Z,11.37
2019-03-18T11:01:49.709Z,8.03
2019-03-18T11:04:54.324Z,9.57
2019-03-18T11:07:58.668Z,6.80
2019-03-18T11:11:03.005Z,8.33
2019-03-18T11:14:07.341Z,7.33
2019-03-18T11:17:11.708Z,6.97
2019-03-18T11:20:16.181Z,10.63
2019-03-18T11:23:20.633Z,10.13
2019-03-18T11:26:24.980Z,7.93
2019-03-18T11:29:29.379Z,8.17
2019-03-18T11:32:33.739Z,9.40
2019-03-18T11:35:38.155Z,8.03
2019-03-18T11:38:42.810Z,10.00
2019-03-18T11:41:47.211Z,7.83
2019-03-18T11:44:51.568Z,8.53
2019-03-18T11:47:56.046Z,9.23
2019-03-18T11:51:00.388Z,8.90
2019-03-18T11:54:04.946Z,8.37
2019-03-18T11:57:09.294Z,9.43
2019-03-18T12:00:15.759Z,7.83
2019-03-18T12:03:20.105Z,7.70
2019-03-18T12:06:24.507Z,6.07
2019-03-18T12:09:28.903Z,5.70
2019-03-18T12:12:33.311Z,11.57
2019-03-18T12:15:37.677Z,8.57
2019-03-18T12:18:48.029Z,10.43
2019-03-18T12:21:58.129Z,8.93
2019-03-18T12:25:02.621Z,10.67
2019-03-18T12:28:07.129Z,9.70
2019-03-18T12:31:11.520Z,11.00
2019-03-18T12:34:15.866Z,10.87
2019-03-18T12:37:20.273Z,8.80
2019-03-18T12:40:24.633Z,8.47
2019-03-18T12:43:29.015Z,9.83
2019-03-18T12:46:33.352Z,8.03
2019-03-18T12:49:37.715Z,7.33
2019-03-18T12:52:43.200Z,6.63
2019-03-18T12:55:47.707Z,6.87
2019-03-18T12:59:11.152Z,6.07
2019-03-18T13:02:15.561Z,8.07
2019-03-18T13:05:19.942Z,6.93
2019-03-18T13:08:24.320Z,9.70
2019-03-18T13:11:28.704Z,8.97
2019-03-18T13:14:33.114Z,8.80
2019-03-18T13:17:37.474Z,10.00
2019-03-18T13:20:41.858Z,7.03
2019-03-18T13:23:46.206Z,5.63
2019-03-18T13:26:50.580Z,8.43
2019-03-18T13:29:54.988Z,4.93
2019-03-18T13:32:59.324Z,7.13
2019-03-18T13:36:03.787Z,7.23
2019-03-18T13:39:09.559Z,7.90
2019-03-18T13:42:13.985Z,10.57
2019-03-18T13:45:18.726Z,7.93
2019-03-18T13:48:23.081Z,6.80
2019-03-18T13:51:27.561Z,5.67
2019-03-18T13:54:32.463Z,8.03
2019-03-18T13:57:36.991Z,6.27
2019-03-18T14:00:41.430Z,6.47
2019-03-18T14:03:47.487Z,11.30
2019-03-18T14:06:52.593Z,12.40
2019-03-18T14:09:57.622Z,13.33
2019-03-18T14:13:02.015Z,7.97
2019-03-18T14:16:07.079Z,7.83
2019-03-18T14:19:12.003Z,9.40
2019-03-18T14:22:17.670Z,9.20
2019-03-18T14:25:22.401Z,6.73
2019-03-18T14:28:27.040Z,8.60
2019-03-18T14:31:32.760Z,7.20
2019-03-18T14:34:37.637Z,7.90
2019-03-18T14:37:42.001Z,9.67
2019-03-18T14:40:46.394Z,6.80
2019-03-18T14:43:50.780Z,6.73
2019-03-18T14:46:55.615Z,9.50
2019-03-18T14:49:59.983Z,7.17
2019-03-18T14:53:04.395Z,9.73
2019-03-18T14:56:08.762Z,6.50
2019-03-18T14:59:13.207Z,9.97
2019-03-18T15:02:17.568Z,7.90
2019-03-18T15:05:22.019Z,8.20
2019-03-18T15:08:26.396Z,8.00
2019-03-18T15:11:30.805Z,8.10
2019-03-18T15:14:35.159Z,9.67
2019-03-18T15:17:39.472Z,8.73
2019-03-18T15:20:45.313Z,10.80
2019-03-18T15:23:49.689Z,9.53
2019-03-18T15:26:54.056Z,8.07
2019-03-18T15:29:58.483Z,10.90
2019-03-18T15:33:04.103Z,9.43
2019-03-18T15:36:08.533Z,15.27
2019-03-18T15:39:12.916Z,13.67
2019-03-18T15:42:17.324Z,15.33
2019-03-18T15:45:21.697Z,11.20
2019-03-18T15:48:26.255Z,12.00
2019-03-18T15:51:30.811Z,10.47
2019-03-18T15:54:36.043Z,9.60
2019-03-18T15:57:41.485Z,8.77
2019-03-18T16:00:45.950Z,16.57
2019-03-18T16:03:50.461Z,9.87
2019-03-18T16:06:54.840Z,14.00
2019-03-18T16:10:01.477Z,10.00
2019-03-18T16:13:06.099Z,9.87
2019-03-18T16:16:10.504Z,9.40
2019-03-18T16:19:15.010Z,13.83
2019-03-18T16:22:23.711Z,16.53
2019-03-18T16:25:28.381Z,11.40
2019-03-18T16:28:32.783Z,14.20
2019-03-18T16:31:39.237Z,15.10
2019-03-18T16:34:43.385Z,18.00
2019-03-18T16:37:47.789Z,14.93
2019-03-18T16:40:52.277Z,15.10
2019-03-18T16:43:56.684Z,19.27
2019-03-18T16:47:01.068Z,19.60
2019-03-18T16:50:06.342Z,16.87
2019-03-18T16:53:10.725Z,15.23
2019-03-18T16:56:15.090Z,15.60
2019-03-18T16:59:19.462Z,19.33
2019-03-18T17:02:23.873Z,12.60
2019-03-18T17:05:28.322Z,13.03
2019-03-18T17:08:32.823Z,14.43
2019-03-18T17:11:37.202Z,16.53
2019-03-18T17:14:41.656Z,13.37
2019-03-18T17:17:46.038Z,13.33
2019-03-18T17:20:51.647Z,14.40
2019-03-18T17:23:56.011Z,15.43
2019-03-18T17:27:01.417Z,15.13
2019-03-18T17:30:07.565Z,16.03
2019-03-18T17:33:12.021Z,16.13
2019-03-18T17:36:16.448Z,21.50
2019-03-18T17:39:20.829Z,19.80
2019-03-18T17:42:25.218Z,14.60
2019-03-18T17:45:29.549Z,14.73
2019-03-18T17:48:33.901Z,18.00
2019-03-18T17:51:38.340Z,18.23
2019-03-18T17:54:44.768Z,13.57
2019-03-18T17:57:48.848Z,17.60
2019-03-18T18:00:53.497Z,16.70
2019-03-18T18:03:59.511Z,15.33
2019-03-18T18:07:04.469Z,15.03
2019-03-18T18:10:09.200Z,12.60
2019-03-18T18:13:13.894Z,10.97
2019-03-18T18:16:18.382Z,11.80
2019-03-18T18:19:22.866Z,17.57
2019-03-18T18:22:27.314Z,110.90
2019-03-18T18:25:31.877Z,61.87
2019-03-18T18:28:36.296Z,57.83
2019-03-18T18:31:40.697Z,59.67
2019-03-18T18:34:45.165Z,60.10
2019-03-18T18:37:49.600Z,56.70
2019-03-18T18:40:54.053Z,59.50
2019-03-18T18:44:00.329Z,74.13
2019-03-18T18:47:06.460Z,72.93
2019-03-18T18:50:10.915Z,62.70
2019-03-18T18:53:25.666Z,65.87
2019-03-18T18:56:21.724Z,55.83
2019-03-18T18:59:26.200Z,49.97
2019-03-18T19:02:30.615Z,53.03
2019-03-18T19:05:35.172Z,42.43
2019-03-18T19:08:41.726Z,47.20
2019-03-18T19:11:46.160Z,47.57
2019-03-18T19:14:50.554Z,47.73
2019-03-18T19:17:56.947Z,45.77
2019-03-18T19:21:01.312Z,43.70
2019-03-18T19:24:05.739Z,39.73
2019-03-18T19:27:10.116Z,45.17
2019-03-18T19:30:17.079Z,49.00
2019-03-18T19:33:21.840Z,46.43
2019-03-18T19:36:27.493Z,51.77
2019-03-18T19:39:31.877Z,54.83
2019-03-18T19:42:36.356Z,46.70
2019-03-18T19:45:41.156Z,55.00
2019-03-18T19:48:45.577Z,60.70
2019-03-18T19:51:50.123Z,55.53
2019-03-18T19:54:54.491Z,69.27
2019-03-18T19:58:00.023Z,72.10
2019-03-18T20:01:04.907Z,68.10
2019-03-18T20:04:09.304Z,74.23
2019-03-18T20:07:13.723Z,79.93
2019-03-18T20:10:23.967Z,86.73
2019-03-18T20:13:28.425Z,92.23
2019-03-18T20:16:33.710Z,103.13
2019-03-18T20:19:38.123Z,114.93
2019-03-18T20:22:42.639Z,122.90
2019-03-18T20:25:47.072Z,131.73
2019-03-18T20:28:51.501Z,144.60
2019-03-18T20:31:55.929Z,148.20
2019-03-18T20:35:00.376Z,158.50
2019-03-18T20:38:06.963Z,167.93
2019-03-18T20:41:11.555Z,170.83
2019-03-18T20:44:19.449Z,179.67
2019-03-18T20:47:24.344Z,172.27
2019-03-18T20:50:29.155Z,180.33
2019-03-18T20:53:33.624Z,182.23
2019-03-18T20:56:38.461Z,191.73
2019-03-18T20:59:42.795Z,177.37
2019-03-18T21:02:47.583Z,168.27
2019-03-18T21:05:53.925Z,159.90
2019-03-18T21:08:58.781Z,147.27
2019-03-18T21:12:03.331Z,149.20
2019-03-18T21:15:09.106Z,146.37
2019-03-18T21:18:13.535Z,140.90
2019-03-18T21:21:18.061Z,141.53
2019-03-18T21:24:23.244Z,133.97
2019-03-18T21:27:28.170Z,133.57
2019-03-18T21:30:32.568Z,128.90
2019-03-18T21:33:37.500Z,133.53
2019-03-18T21:36:42.050Z,132.30
2019-03-18T21:39:48.037Z,134.57
2019-03-18T21:42:52.471Z,133.03
2019-03-18T21:45:57.125Z,125.83
2019-03-18T21:49:01.483Z,126.97
2019-03-18T21:52:06.206Z,124.33
2019-03-18T21:55:10.983Z,119.40
2019-03-18T21:58:16.572Z,121.37
2019-03-18T22:01:20.996Z,122.40
2019-03-18T22:04:25.404Z,111.80
2019-03-18T22:07:29.843Z,117.20
2019-03-18T22:10:34.267Z,113.10
2019-03-18T22:13:38.643Z,120.07
2019-03-18T22:16:43.071Z,107.23
2019-03-18T22:19:47.424Z,95.93
2019-03-18T22:22:51.758Z,100.47
2019-03-18T22:25:56.111Z,96.83
2019-03-18T22:29:00.508Z,85.00
2019-03-18T22:32:04.851Z,84.57
2019-03-18T22:35:09.307Z,86.57
2019-03-18T22:38:13.875Z,81.33
2019-03-18T22:41:20.344Z,93.10
2019-03-18T22:44:25.031Z,93.03
2019-03-18T22:47:29.438Z,114.83
2019-03-18T22:50:33.776Z,111.57
2019-03-18T22:53:38.132Z,111.43
2019-03-18T22:56:42.410Z,135.57
2019-03-18T22:59:46.784Z,140.50
2019-03-18T23:02:51.491Z,132.27
2019-03-18T23:05:57.009Z,144.43
2019-03-18T23:09:01.431Z,144.17
2019-03-18T23:12:05.837Z,133.43
2019-03-18T23:15:11.281Z,134.40
2019-03-18T23:18:15.804Z,122.30
2019-03-18T23:21:20.237Z,133.07
2019-03-18T23:24:24.712Z,119.93
2019-03-18T23:27:29.201Z,120.83
2019-03-18T23:30:33.713Z,118.93
2019-03-18T23:33:38.544Z,115.27
2019-03-18T23:36:43.046Z,114.73
2019-03-18T23:39:47.616Z,107.33
2019-03-18T23:42:52.211Z,109.70
2019-03-18T23:45:56.688Z,104.80
2019-03-18T23:49:01.196Z,108.17
2019-03-18T23:52:07.300Z,102.90
2019-03-18T23:55:18.827Z,109.43
2019-03-18T23:58:18.227Z,112.13
